Burnt Creek

Elevation
6954ft
Aggregated by Synoptic Data
Date/Time Wind Direction Wind Speed knots Wind Gust knots RH % Accumulated Precip Inches Air Temp Fahrenheit
2024-04-17 08:43 NNW 8 12 88 2.47 23
2024-04-17 07:43 N 6 9 95 2.47 23
2024-04-17 06:43 N 3 5 100 2.47 23
2024-04-17 05:43 NW 2 6 100 2.47 23
2024-04-17 04:43 NNW 4 10 99 2.47 24
2024-04-17 03:43 NNW 5 9 99 2.47 25
2024-04-17 02:43 NNW 6 9 100 2.47 26
2024-04-17 01:43 NNW 6 14 100 2.47 27
2024-04-17 00:43 NNW 10 14 99 2.47 29
2024-04-16 23:43 NNW 4 6 100 2.47 32
2024-04-16 22:43 E 3 9 100 2.47 32
2024-04-16 21:43 E 4 8 100 2.47 34
2024-04-16 20:43 E 6 8 100 2.45 35
2024-04-16 19:43 E 5 10 100 2.43 35
2024-04-16 18:43 WNW 4 18 89 2.37 38
2024-04-16 17:43 S 14 23 86 2.37 38
2024-04-16 16:43 S 14 21 92 2.37 38
2024-04-16 15:43 SSW 8 22 87 2.33 38
2024-04-16 14:43 SSE 10 22 60 2.32 43
2024-04-16 13:43 SSW 11 24 53 2.32 45
2024-04-16 12:43 SW 8 15 37 2.32 48
2024-04-16 11:43 WNW 7 20 42 2.32 46
2024-04-16 10:43 SW 10 17 42 2.32 43
2024-04-16 09:43 WSW 7 13 43 2.32 42
2024-04-16 08:43 WNW 3 5 64 2.32 38
2024-04-16 07:43 WSW 3 9 76 2.32 33
2024-04-16 06:43 ESE 4 9 83 2.32 30
2024-04-16 05:43 ESE 5 15 76 2.32 32
2024-04-16 04:43 N 7 14 72 2.32 34
2024-04-16 03:43 ENE 3 9 68 2.32 34
2024-04-16 02:43 E 4 17 76 2.32 32
2024-04-16 01:43 NNE 5 11 65 2.32 36
2024-04-16 00:43 NW 3 9 66 2.32 36
2024-04-15 23:43 NNE 3 8 66 2.32 38
2024-04-15 22:43 ESE 5 8 90 2.32 36
2024-04-15 21:43 N 3 8 67 2.32 42
2024-04-15 20:43 ESE 6 10 88 2.32 41
2024-04-15 19:43 E 7 10 86 2.32 42
2024-04-15 18:43 SSW 2 6 71 2.32 45
2024-04-15 17:43 WNW 5 11 72 2.32 46
2024-04-15 16:43 NNW 4 13 69 2.32 47
2024-04-15 15:43 N 4 9 70 2.32 47
2024-04-15 14:43 N 4 8 82 2.32 45
2024-04-15 13:43 NNW 5 9 95 2.32 40
2024-04-15 12:43 N 5 10 95 2.32 40
2024-04-15 11:43 N 4 9 99 2.32 39
2024-04-15 10:43 NNE 6 9 100 2.29 35
2024-04-15 09:43 NNE 2 4 100 2.18 35
2024-04-15 08:43 NE 3 8 100 2.06 33